sensor_id;sensor_type;location;lat;lon;timestamp;pressure;altitude;pressure_sealevel;temperature;humidity
30073;BME280;16897;52.422;13.678;2024-03-02T00:02:16;100248.78;;;10.85;58.02
30073;BME280;16897;52.422;13.678;2024-03-02T00:06:21;100228.28;;;10.79;57.93
30073;BME280;16897;52.422;13.678;2024-03-02T00:10:25;100241.16;;;10.82;58.11
30073;BME280;16897;52.422;13.678;2024-03-02T00:14:30;100254.38;;;10.93;57.88
30073;BME280;16897;52.422;13.678;2024-03-02T00:18:35;100252.69;;;10.92;58.00
30073;BME280;16897;52.422;13.678;2024-03-02T00:22:36;100245.97;;;10.88;58.18
30073;BME280;16897;52.422;13.678;2024-03-02T00:26:38;100242.25;;;10.92;58.25
30073;BME280;16897;52.422;13.678;2024-03-02T00:34:52;100220.47;;;10.79;57.88
30073;BME280;16897;52.422;13.678;2024-03-02T00:38:53;100237.09;;;10.91;58.02
30073;BME280;16897;52.422;13.678;2024-03-02T00:42:56;100227.69;;;10.88;58.11
30073;BME280;16897;52.422;13.678;2024-03-02T00:46:57;100228.75;;;10.85;57.95
30073;BME280;16897;52.422;13.678;2024-03-02T00:51:01;100215.44;;;10.76;58.07
30073;BME280;16897;52.422;13.678;2024-03-02T00:55:02;100233.88;;;10.87;58.32
30073;BME280;16897;52.422;13.678;2024-03-02T00:59:06;100244.56;;;10.97;58.17
30073;BME280;16897;52.422;13.678;2024-03-02T01:03:08;100195.88;;;10.69;57.89
30073;BME280;16897;52.422;13.678;2024-03-02T01:07:09;100239.72;;;10.91;58.03
30073;BME280;16897;52.422;13.678;2024-03-02T01:11:11;100230.97;;;10.92;58.06
30073;BME280;16897;52.422;13.678;2024-03-02T01:15:12;100243.72;;;10.96;58.27
30073;BME280;16897;52.422;13.678;2024-03-02T01:19:14;100216.91;;;10.80;58.06
30073;BME280;16897;52.422;13.678;2024-03-02T01:23:16;100234.31;;;10.94;58.05
30073;BME280;16897;52.422;13.678;2024-03-02T01:27:17;100221.97;;;10.83;57.95
30073;BME280;16897;52.422;13.678;2024-03-02T01:31:20;100223.34;;;10.89;58.12
30073;BME280;16897;52.422;13.678;2024-03-02T01:35:21;100208.56;;;10.88;57.98
30073;BME280;16897;52.422;13.678;2024-03-02T01:39:23;100201.91;;;10.83;58.25
30073;BME280;16897;52.422;13.678;2024-03-02T01:43:24;100164.00;;;10.63;58.07
30073;BME280;16897;52.422;13.678;2024-03-02T01:47:27;100207.34;;;10.93;58.21
30073;BME280;16897;52.422;13.678;2024-03-02T01:51:28;100198.25;;;10.86;58.16
30073;BME280;16897;52.422;13.678;2024-03-02T01:55:30;100203.81;;;10.94;58.17
30073;BME280;16897;52.422;13.678;2024-03-02T01:59:31;100180.16;;;10.83;58.30
30073;BME280;16897;52.422;13.678;2024-03-02T02:03:33;100189.25;;;10.90;58.28
30073;BME280;16897;52.422;13.678;2024-03-02T02:07:35;100195.84;;;10.96;58.09
30073;BME280;16897;52.422;13.678;2024-03-02T02:11:36;100183.94;;;10.92;58.28
30073;BME280;16897;52.422;13.678;2024-03-02T02:15:38;100192.41;;;10.95;58.15
30073;BME280;16897;52.422;13.678;2024-03-02T02:19:40;100198.59;;;10.94;58.11
30073;BME280;16897;52.422;13.678;2024-03-02T02:23:42;100179.75;;;10.89;58.22
30073;BME280;16897;52.422;13.678;2024-03-02T02:27:47;100204.88;;;11.04;58.20
30073;BME280;16897;52.422;13.678;2024-03-02T02:31:49;100197.97;;;11.03;58.25
30073;BME280;16897;52.422;13.678;2024-03-02T02:35:51;100186.69;;;11.03;58.36
30073;BME280;16897;52.422;13.678;2024-03-02T02:39:52;100184.81;;;11.05;58.21
30073;BME280;16897;52.422;13.678;2024-03-02T02:43:54;100189.72;;;11.10;58.23
30073;BME280;16897;52.422;13.678;2024-03-02T02:47:55;100200.72;;;11.15;58.41
30073;BME280;16897;52.422;13.678;2024-03-02T02:51:57;100199.88;;;11.14;58.30
30073;BME280;16897;52.422;13.678;2024-03-02T02:55:58;100171.00;;;11.03;58.51
30073;BME280;16897;52.422;13.678;2024-03-02T03:00:02;100181.16;;;11.07;58.48
30073;BME280;16897;52.422;13.678;2024-03-02T03:04:06;100172.16;;;11.12;58.45
30073;BME280;16897;52.422;13.678;2024-03-02T03:08:08;100153.00;;;10.98;58.39
30073;BME280;16897;52.422;13.678;2024-03-02T03:12:09;100190.50;;;11.24;58.37
30073;BME280;16897;52.422;13.678;2024-03-02T03:16:11;100187.06;;;11.24;58.38
30073;BME280;16897;52.422;13.678;2024-03-02T03:20:12;100168.63;;;11.13;58.45
30073;BME280;16897;52.422;13.678;2024-03-02T03:24:15;100178.56;;;11.20;58.55
30073;BME280;16897;52.422;13.678;2024-03-02T03:28:17;100180.03;;;11.24;58.48
30073;BME280;16897;52.422;13.678;2024-03-02T03:32:19;100184.97;;;11.29;58.42
30073;BME280;16897;52.422;13.678;2024-03-02T03:36:21;100176.69;;;11.22;58.55
30073;BME280;16897;52.422;13.678;2024-03-02T03:40:22;100153.25;;;11.08;58.63
30073;BME280;16897;52.422;13.678;2024-03-02T03:44:24;100189.25;;;11.30;58.65
30073;BME280;16897;52.422;13.678;2024-03-02T03:48:25;100192.06;;;11.27;58.41
30073;BME280;16897;52.422;13.678;2024-03-02T03:52:32;100202.22;;;11.32;58.50
30073;BME280;16897;52.422;13.678;2024-03-02T03:56:33;100195.00;;;11.35;58.49
30073;BME280;16897;52.422;13.678;2024-03-02T04:00:35;100186.09;;;11.25;58.65
30073;BME280;16897;52.422;13.678;2024-03-02T04:04:37;100186.94;;;11.25;58.43
30073;BME280;16897;52.422;13.678;2024-03-02T04:08:38;100206.00;;;11.40;58.72
30073;BME280;16897;52.422;13.678;2024-03-02T04:12:39;100180.88;;;11.25;58.55
30073;BME280;16897;52.422;13.678;2024-03-02T04:16:41;100150.44;;;11.11;58.62
30073;BME280;16897;52.422;13.678;2024-03-02T04:20:43;100158.31;;;11.24;58.60
30073;BME280;16897;52.422;13.678;2024-03-02T04:24:44;100182.34;;;11.42;58.71
30073;BME280;16897;52.422;13.678;2024-03-02T04:28:46;100177.97;;;11.42;58.78
30073;BME280;16897;52.422;13.678;2024-03-02T04:32:47;100190.72;;;11.47;58.46
30073;BME280;16897;52.422;13.678;2024-03-02T04:36:50;100188.44;;;11.42;58.62
30073;BME280;16897;52.422;13.678;2024-03-02T04:40:52;100186.00;;;11.39;58.66
30073;BME280;16897;52.422;13.678;2024-03-02T04:44:53;100189.97;;;11.45;58.82
30073;BME280;16897;52.422;13.678;2024-03-02T04:48:55;100182.47;;;11.40;58.82
30073;BME280;16897;52.422;13.678;2024-03-02T04:52:58;100208.09;;;11.61;58.84
30073;BME280;16897;52.422;13.678;2024-03-02T04:56:59;100217.94;;;11.57;58.79
30073;BME280;16897;52.422;13.678;2024-03-02T05:01:01;100221.16;;;11.61;58.85
30073;BME280;16897;52.422;13.678;2024-03-02T05:05:02;100234.06;;;11.64;58.84
30073;BME280;16897;52.422;13.678;2024-03-02T05:09:04;100244.09;;;11.70;58.90
30073;BME280;16897;52.422;13.678;2024-03-02T05:13:05;100246.59;;;11.71;58.75
30073;BME280;16897;52.422;13.678;2024-03-02T05:17:06;100211.44;;;11.50;58.89
30073;BME280;16897;52.422;13.678;2024-03-02T05:21:08;100244.63;;;11.75;58.94
30073;BME280;16897;52.422;13.678;2024-03-02T05:25:09;100256.75;;;11.76;58.93
30073;BME280;16897;52.422;13.678;2024-03-02T05:29:11;100257.59;;;11.77;58.83
30073;BME280;16897;52.422;13.678;2024-03-02T05:33:13;100248.69;;;11.79;58.85
30073;BME280;16897;52.422;13.678;2024-03-02T05:37:14;100267.75;;;11.81;58.95
30073;BME280;16897;52.422;13.678;2024-03-02T05:41:15;100244.09;;;11.70;58.79
30073;BME280;16897;52.422;13.678;2024-03-02T05:45:17;100267.53;;;11.84;58.97
30073;BME280;16897;52.422;13.678;2024-03-02T05:49:18;100257.72;;;11.75;59.06
30073;BME280;16897;52.422;13.678;2024-03-02T05:53:20;100277.00;;;11.87;58.88
30073;BME280;16897;52.422;13.678;2024-03-02T05:57:21;100271.81;;;11.85;58.95
30073;BME280;16897;52.422;13.678;2024-03-02T06:01:47;100281.19;;;11.89;58.82
30073;BME280;16897;52.422;13.678;2024-03-02T06:05:49;100269.97;;;11.87;59.01
30073;BME280;16897;52.422;13.678;2024-03-02T06:09:51;100255.50;;;11.82;58.93
30073;BME280;16897;52.422;13.678;2024-03-02T06:13:53;100263.69;;;11.90;58.90
30073;BME280;16897;52.422;13.678;2024-03-02T06:17:55;100264.66;;;11.89;59.07
30073;BME280;16897;52.422;13.678;2024-03-02T06:21:56;100264.72;;;11.87;58.90
30073;BME280;16897;52.422;13.678;2024-03-02T06:25:58;100279.38;;;11.90;58.87
30073;BME280;16897;52.422;13.678;2024-03-02T06:29:59;100294.78;;;11.94;58.92
30073;BME280;16897;52.422;13.678;2024-03-02T06:34:01;100270.91;;;11.86;58.97
30073;BME280;16897;52.422;13.678;2024-03-02T06:38:04;100285.56;;;11.89;58.90
30073;BME280;16897;52.422;13.678;2024-03-02T06:42:06;100297.41;;;11.94;58.99
30073;BME280;16897;52.422;13.678;2024-03-02T06:46:07;100291.56;;;11.91;59.09
30073;BME280;16897;52.422;13.678;2024-03-02T06:50:10;100312.69;;;12.01;58.96
30073;BME280;16897;52.422;13.678;2024-03-02T06:54:12;100310.06;;;12.01;59.04
30073;BME280;16897;52.422;13.678;2024-03-02T06:58:14;100302.22;;;12.01;59.16
30073;BME280;16897;52.422;13.678;2024-03-02T07:02:18;100271.41;;;11.79;59.04
30073;BME280;16897;52.422;13.678;2024-03-02T07:06:20;100317.81;;;12.02;59.06
30073;BME280;16897;52.422;13.678;2024-03-02T07:10:21;100321.16;;;12.04;59.13
30073;BME280;16897;52.422;13.678;2024-03-02T07:14:22;100323.06;;;12.02;59.12
30073;BME280;16897;52.422;13.678;2024-03-02T07:18:44;100307.88;;;11.94;58.94
30073;BME280;16897;52.422;13.678;2024-03-02T07:22:52;100334.44;;;12.01;58.94
30073;BME280;16897;52.422;13.678;2024-03-02T07:26:53;100334.88;;;12.08;59.13
30073;BME280;16897;52.422;13.678;2024-03-02T07:31:02;100347.03;;;12.09;59.13
30073;BME280;16897;52.422;13.678;2024-03-02T07:35:06;100356.56;;;12.10;59.20
30073;BME280;16897;52.422;13.678;2024-03-02T07:39:07;100356.56;;;12.10;58.98
30073;BME280;16897;52.422;13.678;2024-03-02T07:43:09;100356.56;;;12.10;59.17
30073;BME280;16897;52.422;13.678;2024-03-02T07:47:10;100348.41;;;12.02;59.18
30073;BME280;16897;52.422;13.678;2024-03-02T07:51:11;100367.88;;;12.10;59.20
30073;BME280;16897;52.422;13.678;2024-03-02T07:55:14;100366.16;;;12.09;59.17
30073;BME280;16897;52.422;13.678;2024-03-02T07:59:15;100373.72;;;12.14;59.06
30073;BME280;16897;52.422;13.678;2024-03-02T08:03:17;100375.22;;;12.18;59.21
30073;BME280;16897;52.422;13.678;2024-03-02T08:07:18;100360.09;;;12.09;59.09
30073;BME280;16897;52.422;13.678;2024-03-02T08:11:23;100382.03;;;12.21;59.32
30073;BME280;16897;52.422;13.678;2024-03-02T08:15:25;100386.09;;;12.25;59.28
30073;BME280;16897;52.422;13.678;2024-03-02T08:19:26;100382.09;;;12.19;59.37
30073;BME280;16897;52.422;13.678;2024-03-02T08:23:28;100390.50;;;12.24;59.15
30073;BME280;16897;52.422;13.678;2024-03-02T08:27:31;100402.41;;;12.28;59.26
30073;BME280;16897;52.422;13.678;2024-03-02T08:31:33;100392.50;;;12.21;59.21
30073;BME280;16897;52.422;13.678;2024-03-02T08:35:34;100392.16;;;12.25;59.34
30073;BME280;16897;52.422;13.678;2024-03-02T08:39:39;100422.09;;;12.34;59.27
30073;BME280;16897;52.422;13.678;2024-03-02T08:43:40;100409.22;;;12.31;59.31
30073;BME280;16897;52.422;13.678;2024-03-02T08:47:42;100404.00;;;12.31;59.35
30073;BME280;16897;52.422;13.678;2024-03-02T08:51:45;100414.16;;;12.35;59.23
30073;BME280;16897;52.422;13.678;2024-03-02T08:55:46;100404.00;;;12.31;59.36
30073;BME280;16897;52.422;13.678;2024-03-02T08:59:48;100409.66;;;12.37;59.29
30073;BME280;16897;52.422;13.678;2024-03-02T09:03:49;100407.47;;;12.31;59.39
30073;BME280;16897;52.422;13.678;2024-03-02T09:07:50;100414.91;;;12.37;59.40
30073;BME280;16897;52.422;13.678;2024-03-02T09:11:52;100420.22;;;12.36;59.35
30073;BME280;16897;52.422;13.678;2024-03-02T09:15:55;100411.53;;;12.35;59.49
30073;BME280;16897;52.422;13.678;2024-03-02T09:19:57;100402.75;;;12.36;59.31
30073;BME280;16897;52.422;13.678;2024-03-02T09:23:58;100411.56;;;12.48;59.29
30073;BME280;16897;52.422;13.678;2024-03-02T09:28:00;100403.19;;;12.43;59.23
30073;BME280;16897;52.422;13.678;2024-03-02T09:32:01;100407.59;;;12.43;59.39
30073;BME280;16897;52.422;13.678;2024-03-02T09:36:04;100417.53;;;12.50;59.38
30073;BME280;16897;52.422;13.678;2024-03-02T09:40:06;100420.88;;;12.52;59.40
30073;BME280;16897;52.422;13.678;2024-03-02T09:44:07;100426.63;;;12.57;59.44
30073;BME280;16897;52.422;13.678;2024-03-02T09:48:09;100425.59;;;12.60;59.42
30073;BME280;16897;52.422;13.678;2024-03-02T09:52:10;100439.22;;;12.65;59.50
30073;BME280;16897;52.422;13.678;2024-03-02T09:56:12;100415.75;;;12.51;59.56
30073;BME280;16897;52.422;13.678;2024-03-02T10:00:14;100421.09;;;12.62;59.35
30073;BME280;16897;52.422;13.678;2024-03-02T10:04:16;100404.63;;;12.60;59.46
30073;BME280;16897;52.422;13.678;2024-03-02T10:08:18;100440.66;;;12.82;59.61
30073;BME280;16897;52.422;13.678;2024-03-02T10:12:20;100442.88;;;12.88;59.47
30073;BME280;16897;52.422;13.678;2024-03-02T10:16:22;100435.50;;;12.93;59.55
30073;BME280;16897;52.422;13.678;2024-03-02T10:20:27;100433.94;;;12.91;59.58
30073;BME280;16897;52.422;13.678;2024-03-02T10:24:36;100436.03;;;12.98;59.49
30073;BME280;16897;52.422;13.678;2024-03-02T10:28:46;100418.13;;;12.92;59.55
30073;BME280;16897;52.422;13.678;2024-03-02T10:32:49;100423.06;;;12.97;59.54
30073;BME280;16897;52.422;13.678;2024-03-02T10:36:51;100436.25;;;13.08;59.54
30073;BME280;16897;52.422;13.678;2024-03-02T10:40:52;100429.41;;;13.18;59.57
30073;BME280;16897;52.422;13.678;2024-03-02T10:44:56;100412.41;;;13.11;59.47
30073;BME280;16897;52.422;13.678;2024-03-02T10:48:59;100422.47;;;13.30;59.55
30073;BME280;16897;52.422;13.678;2024-03-02T10:53:00;100386.09;;;13.13;59.66
30073;BME280;16897;52.422;13.678;2024-03-02T10:57:02;100390.69;;;13.22;59.46
30073;BME280;16897;52.422;13.678;2024-03-02T11:01:04;100410.38;;;13.40;59.65
30073;BME280;16897;52.422;13.678;2024-03-02T11:05:06;100386.38;;;13.34;59.56
30073;BME280;16897;52.422;13.678;2024-03-02T11:09:10;100417.47;;;13.51;59.61
30073;BME280;16897;52.422;13.678;2024-03-02T11:13:14;100425.50;;;13.61;59.51
30073;BME280;16897;52.422;13.678;2024-03-02T11:17:15;100400.53;;;13.55;59.70
30073;BME280;16897;52.422;13.678;2024-03-02T11:21:17;100413.28;;;13.72;59.60
30073;BME280;16897;52.422;13.678;2024-03-02T11:25:23;100354.50;;;13.51;59.55
30073;BME280;16897;52.422;13.678;2024-03-02T11:33:40;100417.22;;;14.02;59.46
30073;BME280;16897;52.422;13.678;2024-03-02T11:37:41;100402.88;;;13.95;59.51
30073;BME280;16897;52.422;13.678;2024-03-02T11:41:43;100413.88;;;14.11;59.45
30073;BME280;16897;52.422;13.678;2024-03-02T11:45:44;100396.72;;;14.07;59.47
30073;BME280;16897;52.422;13.678;2024-03-02T11:49:50;100400.28;;;14.17;59.42
30073;BME280;16897;52.422;13.678;2024-03-02T11:53:52;100406.53;;;14.28;59.47
30073;BME280;16897;52.422;13.678;2024-03-02T11:57:55;100410.97;;;14.38;59.29
30073;BME280;16897;52.422;13.678;2024-03-02T12:01:57;100401.66;;;14.46;59.47
30073;BME280;16897;52.422;13.678;2024-03-02T12:05:59;100392.97;;;14.45;59.52
30073;BME280;16897;52.422;13.678;2024-03-02T12:10:01;100379.34;;;14.51;59.51
30073;BME280;16897;52.422;13.678;2024-03-02T12:14:04;100397.41;;;14.67;59.47
30073;BME280;16897;52.422;13.678;2024-03-02T12:18:06;100397.53;;;14.77;59.48
30073;BME280;16897;52.422;13.678;2024-03-02T12:22:07;100368.84;;;14.74;59.49
30073;BME280;16897;52.422;13.678;2024-03-02T12:26:09;100380.06;;;14.87;59.53
30073;BME280;16897;52.422;13.678;2024-03-02T12:30:10;100387.84;;;15.00;59.54
30073;BME280;16897;52.422;13.678;2024-03-02T12:34:13;100383.06;;;15.05;59.46
30073;BME280;16897;52.422;13.678;2024-03-02T12:38:15;100377.44;;;15.10;59.50
30073;BME280;16897;52.422;13.678;2024-03-02T12:42:16;100389.59;;;15.22;59.50
30073;BME280;16897;52.422;13.678;2024-03-02T12:46:18;100388.25;;;15.27;59.48
30073;BME280;16897;52.422;13.678;2024-03-02T12:50:20;100388.22;;;15.39;59.35
30073;BME280;16897;52.422;13.678;2024-03-02T12:54:22;100379.41;;;15.40;59.23
30073;BME280;16897;52.422;13.678;2024-03-02T12:58:24;100385.97;;;15.45;59.22
30073;BME280;16897;52.422;13.678;2024-03-02T13:02:30;100384.72;;;15.49;59.23
30073;BME280;16897;52.422;13.678;2024-03-02T13:06:32;100375.91;;;15.51;59.20
30073;BME280;16897;52.422;13.678;2024-03-02T13:10:35;100380.66;;;15.57;59.08
30073;BME280;16897;52.422;13.678;2024-03-02T13:14:36;100374.63;;;15.66;59.21
30073;BME280;16897;52.422;13.678;2024-03-02T13:18:41;100379.28;;;15.74;59.13
30073;BME280;16897;52.422;13.678;2024-03-02T13:22:42;100374.03;;;15.74;59.11
30073;BME280;16897;52.422;13.678;2024-03-02T13:26:44;100369.34;;;15.77;59.27
30073;BME280;16897;52.422;13.678;2024-03-02T13:30:45;100371.03;;;15.78;59.30
30073;BME280;16897;52.422;13.678;2024-03-02T13:34:46;100371.47;;;15.83;58.82
30073;BME280;16897;52.422;13.678;2024-03-02T13:38:48;100378.28;;;15.86;58.88
30073;BME280;16897;52.422;13.678;2024-03-02T13:42:50;100364.41;;;15.84;58.91
30073;BME280;16897;52.422;13.678;2024-03-02T13:46:53;100378.34;;;15.96;59.13
30073;BME280;16897;52.422;13.678;2024-03-02T13:50:54;100373.22;;;15.94;58.97
30073;BME280;16897;52.422;13.678;2024-03-02T13:54:55;100363.06;;;15.89;58.93
30073;BME280;16897;52.422;13.678;2024-03-02T13:58:57;100364.59;;;15.92;59.10
30073;BME280;16897;52.422;13.678;2024-03-02T14:02:58;100371.16;;;15.98;58.67
30073;BME280;16897;52.422;13.678;2024-03-02T14:07:00;100359.06;;;15.95;58.60
30073;BME280;16897;52.422;13.678;2024-03-02T14:11:02;100341.41;;;15.86;58.63
30073;BME280;16897;52.422;13.678;2024-03-02T14:15:04;100372.59;;;16.02;58.72
30073;BME280;16897;52.422;13.678;2024-03-02T14:19:05;100373.72;;;16.09;58.79
30073;BME280;16897;52.422;13.678;2024-03-02T14:23:07;100375.66;;;16.07;58.70
30073;BME280;16897;52.422;13.678;2024-03-02T14:27:12;100378.41;;;16.05;58.63
30073;BME280;16897;52.422;13.678;2024-03-02T14:31:15;100375.06;;;16.03;58.63
30073;BME280;16897;52.422;13.678;2024-03-02T14:35:16;100389.06;;;16.04;58.57
30073;BME280;16897;52.422;13.678;2024-03-02T14:39:18;100379.06;;;15.98;58.50
30073;BME280;16897;52.422;13.678;2024-03-02T14:43:20;100380.03;;;15.97;58.51
30073;BME280;16897;52.422;13.678;2024-03-02T14:47:22;100387.66;;;16.00;58.45
30073;BME280;16897;52.422;13.678;2024-03-02T14:51:23;100389.97;;;15.93;58.58
30073;BME280;16897;52.422;13.678;2024-03-02T14:55:28;100380.56;;;15.90;58.29
30073;BME280;16897;52.422;13.678;2024-03-02T14:59:33;100372.69;;;15.79;58.29
30073;BME280;16897;52.422;13.678;2024-03-02T15:03:35;100384.63;;;15.83;58.42
30073;BME280;16897;52.422;13.678;2024-03-02T15:07:36;100382.72;;;15.85;58.24
30073;BME280;16897;52.422;13.678;2024-03-02T15:11:38;100384.06;;;15.80;58.40
30073;BME280;16897;52.422;13.678;2024-03-02T15:15:40;100344.88;;;15.54;58.33
30073;BME280;16897;52.422;13.678;2024-03-02T15:19:43;100382.06;;;15.72;58.04
30073;BME280;16897;52.422;13.678;2024-03-02T15:23:44;100387.19;;;15.74;58.19
30073;BME280;16897;52.422;13.678;2024-03-02T15:27:46;100370.69;;;15.60;58.08
30073;BME280;16897;52.422;13.678;2024-03-02T15:31:47;100381.56;;;15.67;58.26
30073;BME280;16897;52.422;13.678;2024-03-02T15:35:48;100383.16;;;15.69;58.22
30073;BME280;16897;52.422;13.678;2024-03-02T15:39:50;100366.66;;;15.56;58.30
30073;BME280;16897;52.422;13.678;2024-03-02T15:43:51;100374.88;;;15.63;58.38
30073;BME280;16897;52.422;13.678;2024-03-02T15:47:53;100346.03;;;15.40;58.19
30073;BME280;16897;52.422;13.678;2024-03-02T15:51:54;100372.75;;;15.57;57.88
30073;BME280;16897;52.422;13.678;2024-03-02T15:55:56;100371.31;;;15.53;58.10
30073;BME280;16897;52.422;13.678;2024-03-02T15:59:58;100341.25;;;15.34;57.88
30073;BME280;16897;52.422;13.678;2024-03-02T16:03:59;100332.19;;;15.27;57.85
30073;BME280;16897;52.422;13.678;2024-03-02T16:08:00;100341.63;;;15.30;58.03
30073;BME280;16897;52.422;13.678;2024-03-02T16:12:02;100363.22;;;15.44;57.96
30073;BME280;16897;52.422;13.678;2024-03-02T16:16:03;100378.13;;;15.55;58.05
30073;BME280;16897;52.422;13.678;2024-03-02T16:20:06;100385.34;;;15.53;57.92
30073;BME280;16897;52.422;13.678;2024-03-02T16:24:07;100375.28;;;15.47;57.89
30073;BME280;16897;52.422;13.678;2024-03-02T16:28:09;100394.31;;;15.51;58.06
30073;BME280;16897;52.422;13.678;2024-03-02T16:32:10;100369.44;;;15.43;57.93
30073;BME280;16897;52.422;13.678;2024-03-02T16:36:12;100344.38;;;15.28;57.93
30073;BME280;16897;52.422;13.678;2024-03-02T16:40:13;100387.50;;;15.48;58.01
30073;BME280;16897;52.422;13.678;2024-03-02T16:44:14;100369.50;;;15.32;57.85
30073;BME280;16897;52.422;13.678;2024-03-02T16:48:16;100361.63;;;15.21;57.88
30073;BME280;16897;52.422;13.678;2024-03-02T16:52:18;100371.06;;;15.23;57.60
30073;BME280;16897;52.422;13.678;2024-03-02T16:56:20;100384.69;;;15.29;57.95
30073;BME280;16897;52.422;13.678;2024-03-02T17:00:22;100389.59;;;15.22;57.88
30073;BME280;16897;52.422;13.678;2024-03-02T17:04:23;100394.84;;;15.22;57.75
30073;BME280;16897;52.422;13.678;2024-03-02T17:08:24;100349.16;;;14.91;57.74
30073;BME280;16897;52.422;13.678;2024-03-02T17:12:26;100387.25;;;15.08;57.74
30073;BME280;16897;52.422;13.678;2024-03-02T17:16:27;100398.47;;;15.10;57.59
30073;BME280;16897;52.422;13.678;2024-03-02T17:20:29;100361.94;;;14.73;57.63
30073;BME280;16897;52.422;13.678;2024-03-02T17:24:30;100379.59;;;14.82;57.52
30073;BME280;16897;52.422;13.678;2024-03-02T17:28:32;100398.25;;;14.79;57.69
30073;BME280;16897;52.422;13.678;2024-03-02T17:32:33;100420.59;;;14.85;57.47
30073;BME280;16897;52.422;13.678;2024-03-02T17:36:34;100422.28;;;14.74;57.49
30073;BME280;16897;52.422;13.678;2024-03-02T17:40:36;100427.88;;;14.70;57.54
30073;BME280;16897;52.422;13.678;2024-03-02T17:44:37;100427.66;;;14.62;57.66
30073;BME280;16897;52.422;13.678;2024-03-02T17:48:39;100426.81;;;14.61;57.61
30073;BME280;16897;52.422;13.678;2024-03-02T17:52:41;100416.38;;;14.48;57.61
30073;BME280;16897;52.422;13.678;2024-03-02T17:56:42;100426.16;;;14.46;57.54
30073;BME280;16897;52.422;13.678;2024-03-02T18:00:43;100442.16;;;14.43;57.48
30073;BME280;16897;52.422;13.678;2024-03-02T18:04:46;100438.53;;;14.33;57.36
30073;BME280;16897;52.422;13.678;2024-03-02T18:08:47;100441.63;;;14.27;57.44
30073;BME280;16897;52.422;13.678;2024-03-02T18:12:50;100444.38;;;14.25;57.48
30073;BME280;16897;52.422;13.678;2024-03-02T18:16:52;100443.78;;;14.22;57.47
30073;BME280;16897;52.422;13.678;2024-03-02T18:20:53;100409.81;;;13.96;57.52
30073;BME280;16897;52.422;13.678;2024-03-02T18:24:55;100437.16;;;14.05;57.55
30073;BME280;16897;52.422;13.678;2024-03-02T18:28:56;100428.06;;;13.98;57.36
30073;BME280;16897;52.422;13.678;2024-03-02T18:32:58;100415.94;;;13.84;57.42
30073;BME280;16897;52.422;13.678;2024-03-02T18:36:59;100420.25;;;13.85;57.50
30073;BME280;16897;52.422;13.678;2024-03-02T18:41:01;100431.94;;;13.81;57.53
30073;BME280;16897;52.422;13.678;2024-03-02T18:45:02;100422.59;;;13.77;57.49
30073;BME280;16897;52.422;13.678;2024-03-02T18:49:06;100406.94;;;13.64;57.51
30073;BME280;16897;52.422;13.678;2024-03-02T18:53:07;100416.97;;;13.70;57.44
30073;BME280;16897;52.422;13.678;2024-03-02T18:57:09;100418.63;;;13.71;57.45
30073;BME280;16897;52.422;13.678;2024-03-02T19:01:10;100410.38;;;13.64;57.53
30073;BME280;16897;52.422;13.678;2024-03-02T19:05:12;100386.91;;;13.50;57.38
30073;BME280;16897;52.422;13.678;2024-03-02T19:09:13;100407.72;;;13.53;57.51
30073;BME280;16897;52.422;13.678;2024-03-02T19:13:14;100409.41;;;13.41;57.31
30073;BME280;16897;52.422;13.678;2024-03-02T19:17:16;100407.34;;;13.34;57.42
30073;BME280;16897;52.422;13.678;2024-03-02T19:21:18;100415.94;;;13.36;57.43
30073;BME280;16897;52.422;13.678;2024-03-02T19:25:19;100396.97;;;13.19;57.44
30073;BME280;16897;52.422;13.678;2024-03-02T19:29:21;100407.97;;;13.24;57.56
30073;BME280;16897;52.422;13.678;2024-03-02T19:33:24;100409.13;;;13.20;57.43
30073;BME280;16897;52.422;13.678;2024-03-02T19:37:26;100394.19;;;13.10;57.46
30073;BME280;16897;52.422;13.678;2024-03-02T19:41:28;100392.63;;;13.07;57.41
30073;BME280;16897;52.422;13.678;2024-03-02T19:45:29;100388.53;;;13.03;57.45
30073;BME280;16897;52.422;13.678;2024-03-02T19:49:31;100403.81;;;13.09;57.53
30073;BME280;16897;52.422;13.678;2024-03-02T19:53:32;100395.44;;;13.04;57.45
30073;BME280;16897;52.422;13.678;2024-03-02T19:57:33;100393.03;;;13.01;57.41
30073;BME280;16897;52.422;13.678;2024-03-02T20:01:36;100385.84;;;12.92;57.39
30073;BME280;16897;52.422;13.678;2024-03-02T20:05:38;100375.28;;;12.80;57.45
30073;BME280;16897;52.422;13.678;2024-03-02T20:09:39;100373.50;;;12.81;57.41
30073;BME280;16897;52.422;13.678;2024-03-02T20:13:41;100379.69;;;12.80;57.36
30073;BME280;16897;52.422;13.678;2024-03-02T20:17:43;100385.75;;;12.80;57.42
30073;BME280;16897;52.422;13.678;2024-03-02T20:21:44;100383.75;;;12.71;57.56
30073;BME280;16897;52.422;13.678;2024-03-02T20:25:46;100380.63;;;12.66;57.43
30073;BME280;16897;52.422;13.678;2024-03-02T20:29:47;100369.31;;;12.53;57.39
30073;BME280;16897;52.422;13.678;2024-03-02T20:33:49;100391.13;;;12.53;57.41
30073;BME280;16897;52.422;13.678;2024-03-02T20:37:51;100372.69;;;12.42;57.51
30073;BME280;16897;52.422;13.678;2024-03-02T20:41:52;100367.03;;;12.35;57.58
30073;BME280;16897;52.422;13.678;2024-03-02T20:45:54;100374.06;;;12.35;57.71
30073;BME280;16897;52.422;13.678;2024-03-02T20:49:56;100387.56;;;12.42;57.65
30073;BME280;16897;52.422;13.678;2024-03-02T20:53:57;100378.25;;;12.37;57.65
30073;BME280;16897;52.422;13.678;2024-03-02T20:58:00;100369.13;;;12.30;57.65